sensor_id;sensor_type;location;lat;lon;timestamp;pressure;altitude;pressure_sealevel;temperature;humidity
10978;BME280;5542;48.272;10.794;2023-05-24T00:01:05;95883.19;;;15.74;68.18
10978;BME280;5542;48.272;10.794;2023-05-24T00:03:32;95877.34;;;15.67;68.55
10978;BME280;5542;48.272;10.794;2023-05-24T00:06:03;95884.47;;;15.66;68.68
10978;BME280;5542;48.272;10.794;2023-05-24T00:08:31;95876.78;;;15.65;68.77
10978;BME280;5542;48.272;10.794;2023-05-24T00:10:57;95884.97;;;15.63;68.95
10978;BME280;5542;48.272;10.794;2023-05-24T00:13:24;95882.03;;;15.59;69.00
10978;BME280;5542;48.272;10.794;2023-05-24T00:15:52;95875.66;;;15.60;69.08
10978;BME280;5542;48.272;10.794;2023-05-24T00:18:19;95880.50;;;15.64;68.85
10978;BME280;5542;48.272;10.794;2023-05-24T00:20:45;95877.06;;;15.68;68.54
10978;BME280;5542;48.272;10.794;2023-05-24T00:23:12;95869.06;;;15.63;69.08
10978;BME280;5542;48.272;10.794;2023-05-24T00:25:39;95872.78;;;15.62;68.81
10978;BME280;5542;48.272;10.794;2023-05-24T00:28:05;95865.06;;;15.60;68.72
10978;BME280;5542;48.272;10.794;2023-05-24T00:30:32;95874.94;;;15.33;69.90
10978;BME280;5542;48.272;10.794;2023-05-24T00:33:00;95866.16;;;15.27;70.24
10978;BME280;5542;48.272;10.794;2023-05-24T00:35:26;95870.19;;;15.30;70.51
10978;BME280;5542;48.272;10.794;2023-05-24T00:37:53;95870.69;;;15.32;70.21
10978;BME280;5542;48.272;10.794;2023-05-24T00:40:21;95873.34;;;15.32;70.05
10978;BME280;5542;48.272;10.794;2023-05-24T00:42:48;95870.97;;;15.30;70.32
10978;BME280;5542;48.272;10.794;2023-05-24T00:45:14;95862.97;;;15.25;70.32
10978;BME280;5542;48.272;10.794;2023-05-24T00:47:41;95860.34;;;15.25;70.72
10978;BME280;5542;48.272;10.794;2023-05-24T00:50:10;95865.88;;;15.24;70.72
10978;BME280;5542;48.272;10.794;2023-05-24T00:52:39;95856.94;;;15.30;70.51
10978;BME280;5542;48.272;10.794;2023-05-24T00:55:08;95859.03;;;15.33;70.59
10978;BME280;5542;48.272;10.794;2023-05-24T00:57:35;95865.53;;;15.10;71.14
10978;BME280;5542;48.272;10.794;2023-05-24T01:00:03;95865.53;;;15.10;71.16
10978;BME280;5542;48.272;10.794;2023-05-24T01:02:30;95867.41;;;15.15;70.99
10978;BME280;5542;48.272;10.794;2023-05-24T01:04:57;95862.91;;;15.15;71.19
10978;BME280;5542;48.272;10.794;2023-05-24T01:07:32;95867.44;;;15.20;70.86
10978;BME280;5542;48.272;10.794;2023-05-24T01:10:05;95861.66;;;15.28;70.60
10978;BME280;5542;48.272;10.794;2023-05-24T01:12:44;95864.34;;;15.33;70.47
10978;BME280;5542;48.272;10.794;2023-05-24T01:15:18;95866.19;;;15.32;70.25
10978;BME280;5542;48.272;10.794;2023-05-24T01:17:53;95857.16;;;15.28;70.40
10978;BME280;5542;48.272;10.794;2023-05-24T01:20:27;95856.94;;;15.30;70.56
10978;BME280;5542;48.272;10.794;2023-05-24T01:23:06;95860.66;;;15.34;70.32
10978;BME280;5542;48.272;10.794;2023-05-24T01:25:47;95868.88;;;15.37;70.08
10978;BME280;5542;48.272;10.794;2023-05-24T01:28:17;95864.91;;;15.35;70.07
10978;BME280;5542;48.272;10.794;2023-05-24T01:30:44;95863.59;;;15.37;69.95
10978;BME280;5542;48.272;10.794;2023-05-24T01:33:11;95873.91;;;15.34;69.96
10978;BME280;5542;48.272;10.794;2023-05-24T01:35:38;95864.66;;;15.36;69.68
10978;BME280;5542;48.272;10.794;2023-05-24T01:38:07;95869.13;;;15.31;69.74
10978;BME280;5542;48.272;10.794;2023-05-24T01:40:37;95871.31;;;15.39;69.49
10978;BME280;5542;48.272;10.794;2023-05-24T01:43:13;95878.41;;;15.33;69.74
10978;BME280;5542;48.272;10.794;2023-05-24T01:45:48;95874.38;;;15.26;70.10
10978;BME280;5542;48.272;10.794;2023-05-24T01:48:23;95878.59;;;15.22;70.40
10978;BME280;5542;48.272;10.794;2023-05-24T01:50:57;95884.69;;;15.22;70.02
10978;BME280;5542;48.272;10.794;2023-05-24T01:53:33;95882.28;;;15.21;70.04
10978;BME280;5542;48.272;10.794;2023-05-24T01:56:02;95875.91;;;15.17;69.69
10978;BME280;5542;48.272;10.794;2023-05-24T01:58:31;95879.03;;;15.14;69.91
10978;BME280;5542;48.272;10.794;2023-05-24T02:01:00;95881.66;;;15.08;70.22
10978;BME280;5542;48.272;10.794;2023-05-24T02:03:27;95878.75;;;14.78;71.25
10978;BME280;5542;48.272;10.794;2023-05-24T02:05:54;95882.03;;;14.63;71.87
10978;BME280;5542;48.272;10.794;2023-05-24T02:08:21;95881.56;;;14.71;71.78
10978;BME280;5542;48.272;10.794;2023-05-24T02:10:47;95879.75;;;14.72;72.01
10978;BME280;5542;48.272;10.794;2023-05-24T02:13:14;95878.75;;;14.78;71.85
10978;BME280;5542;48.272;10.794;2023-05-24T02:15:42;95875.53;;;14.76;71.65
10978;BME280;5542;48.272;10.794;2023-05-24T02:18:10;95872.00;;;14.65;71.69
10978;BME280;5542;48.272;10.794;2023-05-24T02:20:37;95877.53;;;14.64;72.01
10978;BME280;5542;48.272;10.794;2023-05-24T02:23:04;95875.38;;;14.60;72.48
10978;BME280;5542;48.272;10.794;2023-05-24T02:25:30;95868.84;;;14.68;71.73
10978;BME280;5542;48.272;10.794;2023-05-24T02:27:57;95871.72;;;14.67;72.26
10978;BME280;5542;48.272;10.794;2023-05-24T02:30:24;95876.84;;;14.73;72.02
10978;BME280;5542;48.272;10.794;2023-05-24T02:32:51;95875.56;;;14.81;71.43
10978;BME280;5542;48.272;10.794;2023-05-24T02:35:20;95868.94;;;14.78;71.44
10978;BME280;5542;48.272;10.794;2023-05-24T02:37:47;95874.50;;;14.77;71.29
10978;BME280;5542;48.272;10.794;2023-05-24T02:40:13;95874.03;;;14.36;72.05
10978;BME280;5542;48.272;10.794;2023-05-24T02:42:40;95871.78;;;14.23;72.45
10978;BME280;5542;48.272;10.794;2023-05-24T02:45:07;95876.59;;;14.26;72.67
10978;BME280;5542;48.272;10.794;2023-05-24T02:47:34;95865.31;;;14.14;73.09
10978;BME280;5542;48.272;10.794;2023-05-24T02:50:01;95872.88;;;14.05;71.96
10978;BME280;5542;48.272;10.794;2023-05-24T02:52:29;95860.16;;;13.58;72.15
10978;BME280;5542;48.272;10.794;2023-05-24T02:54:55;95864.44;;;13.25;73.69
10978;BME280;5542;48.272;10.794;2023-05-24T02:57:22;95865.84;;;13.33;74.28
10978;BME280;5542;48.272;10.794;2023-05-24T02:59:49;95855.53;;;13.48;72.96
10978;BME280;5542;48.272;10.794;2023-05-24T03:02:15;95861.75;;;13.08;74.33
10978;BME280;5542;48.272;10.794;2023-05-24T03:04:43;95858.13;;;12.81;75.73
10978;BME280;5542;48.272;10.794;2023-05-24T03:07:10;95853.75;;;12.87;75.95
10978;BME280;5542;48.272;10.794;2023-05-24T03:09:39;95856.47;;;12.92;75.53
10978;BME280;5542;48.272;10.794;2023-05-24T03:12:07;95858.78;;;12.88;75.43
10978;BME280;5542;48.272;10.794;2023-05-24T03:14:33;95853.41;;;13.00;75.41
10978;BME280;5542;48.272;10.794;2023-05-24T03:17:00;95862.63;;;12.97;74.08
10978;BME280;5542;48.272;10.794;2023-05-24T03:19:26;95858.28;;;12.91;74.93
10978;BME280;5542;48.272;10.794;2023-05-24T03:21:53;95863.34;;;13.10;74.05
10978;BME280;5542;48.272;10.794;2023-05-24T03:24:20;95859.66;;;12.94;73.97
10978;BME280;5542;48.272;10.794;2023-05-24T03:26:48;95857.81;;;12.94;74.23
10978;BME280;5542;48.272;10.794;2023-05-24T03:29:15;95857.75;;;12.89;74.55
10978;BME280;5542;48.272;10.794;2023-05-24T03:31:41;95861.91;;;13.02;73.64
10978;BME280;5542;48.272;10.794;2023-05-24T03:34:08;95857.28;;;12.92;74.04
10978;BME280;5542;48.272;10.794;2023-05-24T03:36:35;95859.66;;;12.94;73.93
10978;BME280;5542;48.272;10.794;2023-05-24T03:39:01;95863.25;;;13.04;73.82
10978;BME280;5542;48.272;10.794;2023-05-24T03:41:28;95866.94;;;13.03;73.18
10978;BME280;5542;48.272;10.794;2023-05-24T03:43:56;95869.28;;;13.17;72.33
10978;BME280;5542;48.272;10.794;2023-05-24T03:46:23;95869.59;;;13.03;70.92
10978;BME280;5542;48.272;10.794;2023-05-24T03:48:50;95863.25;;;13.04;70.66
10978;BME280;5542;48.272;10.794;2023-05-24T03:51:16;95876.09;;;12.67;70.93
10978;BME280;5542;48.272;10.794;2023-05-24T03:53:43;95873.91;;;12.47;70.49
10978;BME280;5542;48.272;10.794;2023-05-24T03:56:10;95876.78;;;12.05;72.59
10978;BME280;5542;48.272;10.794;2023-05-24T03:58:36;95871.84;;;12.21;72.57
10978;BME280;5542;48.272;10.794;2023-05-24T04:01:04;95881.97;;;12.41;71.46
10978;BME280;5542;48.272;10.794;2023-05-24T04:03:31;95878.72;;;12.50;69.46
10978;BME280;5542;48.272;10.794;2023-05-24T04:05:58;95878.72;;;12.10;70.17
10978;BME280;5542;48.272;10.794;2023-05-24T04:08:25;95886.47;;;11.88;71.45
10978;BME280;5542;48.272;10.794;2023-05-24T04:10:51;95897.88;;;12.05;72.06
10978;BME280;5542;48.272;10.794;2023-05-24T04:13:18;95895.84;;;12.08;70.21
10978;BME280;5542;48.272;10.794;2023-05-24T04:15:44;95894.69;;;11.80;71.15
10978;BME280;5542;48.272;10.794;2023-05-24T04:18:12;95897.03;;;11.88;71.59
10978;BME280;5542;48.272;10.794;2023-05-24T04:20:39;95902.75;;;11.97;71.12
10978;BME280;5542;48.272;10.794;2023-05-24T04:23:07;95894.66;;;12.15;71.69
10978;BME280;5542;48.272;10.794;2023-05-24T04:25:34;95899.31;;;12.37;71.94
10978;BME280;5542;48.272;10.794;2023-05-24T04:28:01;95888.31;;;12.28;69.34
10978;BME280;5542;48.272;10.794;2023-05-24T04:30:27;95903.16;;;12.05;69.73
10978;BME280;5542;48.272;10.794;2023-05-24T04:32:54;95901.59;;;11.69;71.64
10978;BME280;5542;48.272;10.794;2023-05-24T04:35:23;95904.81;;;11.60;71.70
10978;BME280;5542;48.272;10.794;2023-05-24T04:37:49;95912.69;;;11.71;72.42
10978;BME280;5542;48.272;10.794;2023-05-24T04:40:16;95911.56;;;11.79;71.75
10978;BME280;5542;48.272;10.794;2023-05-24T04:42:45;95914.19;;;11.67;70.59
10978;BME280;5542;48.272;10.794;2023-05-24T04:45:11;95910.84;;;11.48;71.18
10978;BME280;5542;48.272;10.794;2023-05-24T04:47:39;95907.91;;;11.45;72.01
10978;BME280;5542;48.272;10.794;2023-05-24T04:50:07;95907.69;;;11.35;72.18
10978;BME280;5542;48.272;10.794;2023-05-24T04:52:35;95913.94;;;11.34;71.92
10978;BME280;5542;48.272;10.794;2023-05-24T04:55:01;95906.28;;;11.20;72.33
10978;BME280;5542;48.272;10.794;2023-05-24T04:57:28;95902.72;;;11.15;72.95
10978;BME280;5542;48.272;10.794;2023-05-24T04:59:55;95901.13;;;11.37;72.98
10978;BME280;5542;48.272;10.794;2023-05-24T05:02:21;95903.53;;;11.62;71.69
10978;BME280;5542;48.272;10.794;2023-05-24T05:04:50;95903.22;;;11.59;71.19
10978;BME280;5542;48.272;10.794;2023-05-24T05:07:17;95901.00;;;11.79;72.00
10978;BME280;5542;48.272;10.794;2023-05-24T05:09:45;95897.56;;;12.02;72.04
10978;BME280;5542;48.272;10.794;2023-05-24T05:12:11;95900.22;;;12.02;70.29
10978;BME280;5542;48.272;10.794;2023-05-24T05:14:38;95902.75;;;11.97;69.89
10978;BME280;5542;48.272;10.794;2023-05-24T05:17:05;95908.00;;;11.97;69.87
10978;BME280;5542;48.272;10.794;2023-05-24T05:19:31;95897.34;;;11.80;70.03
10978;BME280;5542;48.272;10.794;2023-05-24T05:21:58;95895.28;;;11.70;70.99
10978;BME280;5542;48.272;10.794;2023-05-24T05:24:25;95891.97;;;11.87;70.18
10978;BME280;5542;48.272;10.794;2023-05-24T05:26:53;95896.44;;;11.63;70.22
10978;BME280;5542;48.272;10.794;2023-05-24T05:29:20;95898.84;;;11.52;70.88
10978;BME280;5542;48.272;10.794;2023-05-24T05:31:46;95892.44;;;11.60;70.60
10978;BME280;5542;48.272;10.794;2023-05-24T05:34:13;95890.94;;;11.52;70.96
10978;BME280;5542;48.272;10.794;2023-05-24T05:36:39;95895.06;;;11.37;72.09
10978;BME280;5542;48.272;10.794;2023-05-24T05:39:06;95897.00;;;11.18;72.94
10978;BME280;5542;48.272;10.794;2023-05-24T05:41:37;95898.03;;;11.17;72.62
10978;BME280;5542;48.272;10.794;2023-05-24T05:44:05;95897.13;;;11.11;73.05
10978;BME280;5542;48.272;10.794;2023-05-24T05:46:32;95894.03;;;11.26;71.96
10978;BME280;5542;48.272;10.794;2023-05-24T05:48:58;95893.56;;;11.29;72.38
10978;BME280;5542;48.272;10.794;2023-05-24T05:51:25;95894.16;;;11.31;72.79
10978;BME280;5542;48.272;10.794;2023-05-24T05:53:52;95891.06;;;11.34;72.81
10978;BME280;5542;48.272;10.794;2023-05-24T05:56:18;95894.38;;;11.41;72.33
10978;BME280;5542;48.272;10.794;2023-05-24T05:58:45;95892.88;;;11.57;72.33
10978;BME280;5542;48.272;10.794;2023-05-24T06:01:14;95886.13;;;11.61;71.58
10978;BME280;5542;48.272;10.794;2023-05-24T06:03:41;95881.88;;;11.72;71.76
10978;BME280;5542;48.272;10.794;2023-05-24T06:06:07;95882.81;;;11.77;71.37
10978;BME280;5542;48.272;10.794;2023-05-24T06:08:34;95885.53;;;11.71;71.35
10978;BME280;5542;48.272;10.794;2023-05-24T06:11:01;95886.59;;;11.70;70.93
10978;BME280;5542;48.272;10.794;2023-05-24T06:13:28;95879.94;;;11.79;70.97
10978;BME280;5542;48.272;10.794;2023-05-24T06:15:55;95877.44;;;11.84;70.33
10978;BME280;5542;48.272;10.794;2023-05-24T06:18:24;95883.38;;;11.56;71.50
10978;BME280;5542;48.272;10.794;2023-05-24T06:20:51;95884.78;;;11.59;71.70
10978;BME280;5542;48.272;10.794;2023-05-24T06:23:18;95883.28;;;11.51;72.57
10978;BME280;5542;48.272;10.794;2023-05-24T06:25:45;95883.72;;;11.60;72.47
10978;BME280;5542;48.272;10.794;2023-05-24T06:28:11;95892.31;;;11.55;71.20
10978;BME280;5542;48.272;10.794;2023-05-24T06:30:38;95895.28;;;11.70;71.91
10978;BME280;5542;48.272;10.794;2023-05-24T06:33:04;95891.97;;;11.63;72.34
10978;BME280;5542;48.272;10.794;2023-05-24T06:35:32;95895.38;;;11.99;71.11
10978;BME280;5542;48.272;10.794;2023-05-24T06:37:59;95902.28;;;11.88;71.09
10978;BME280;5542;48.272;10.794;2023-05-24T06:40:25;95903.34;;;11.87;73.09
10978;BME280;5542;48.272;10.794;2023-05-24T06:42:52;95904.97;;;12.17;73.47
10978;BME280;5542;48.272;10.794;2023-05-24T06:45:18;95897.91;;;12.34;70.48
10978;BME280;5542;48.272;10.794;2023-05-24T06:47:45;95911.22;;;12.39;70.25
10978;BME280;5542;48.272;10.794;2023-05-24T06:50:11;95909.84;;;12.37;70.69
10978;BME280;5542;48.272;10.794;2023-05-24T06:52:40;95910.72;;;12.54;70.06
10978;BME280;5542;48.272;10.794;2023-05-24T06:55:07;95911.88;;;12.75;69.85
10978;BME280;5542;48.272;10.794;2023-05-24T06:57:33;95913.13;;;13.18;66.42
10978;BME280;5542;48.272;10.794;2023-05-24T07:00:00;95917.94;;;12.75;66.78
10978;BME280;5542;48.272;10.794;2023-05-24T07:02:28;95919.28;;;12.61;66.94
10978;BME280;5542;48.272;10.794;2023-05-24T07:04:55;95923.41;;;12.57;68.78
10978;BME280;5542;48.272;10.794;2023-05-24T07:07:22;95926.84;;;12.57;68.33
10978;BME280;5542;48.272;10.794;2023-05-24T07:09:50;95927.72;;;12.75;68.22
10978;BME280;5542;48.272;10.794;2023-05-24T07:12:16;95932.53;;;12.78;67.24
10978;BME280;5542;48.272;10.794;2023-05-24T07:14:43;95928.47;;;12.59;67.88
10978;BME280;5542;48.272;10.794;2023-05-24T07:17:10;95928.75;;;12.74;66.97
10978;BME280;5542;48.272;10.794;2023-05-24T07:19:36;95933.59;;;12.94;67.50
10978;BME280;5542;48.272;10.794;2023-05-24T07:22:03;95926.38;;;13.35;66.15
10978;BME280;5542;48.272;10.794;2023-05-24T07:24:30;95923.66;;;13.29;66.81
10978;BME280;5542;48.272;10.794;2023-05-24T07:26:57;95921.66;;;13.37;63.86
10978;BME280;5542;48.272;10.794;2023-05-24T07:29:24;95928.75;;;13.53;63.80
10978;BME280;5542;48.272;10.794;2023-05-24T07:31:53;95929.25;;;13.50;64.47
10978;BME280;5542;48.272;10.794;2023-05-24T07:34:20;95925.34;;;13.36;64.36
10978;BME280;5542;48.272;10.794;2023-05-24T07:36:48;95916.81;;;13.33;63.82
10978;BME280;5542;48.272;10.794;2023-05-24T07:39:15;95918.88;;;13.15;64.38
10978;BME280;5542;48.272;10.794;2023-05-24T07:41:41;95923.59;;;13.13;65.40
10978;BME280;5542;48.272;10.794;2023-05-24T07:44:09;95925.25;;;12.85;67.06
10978;BME280;5542;48.272;10.794;2023-05-24T07:46:36;95923.28;;;12.92;66.40
10978;BME280;5542;48.272;10.794;2023-05-24T07:49:03;95925.31;;;12.90;67.39
10978;BME280;5542;48.272;10.794;2023-05-24T07:51:29;95928.13;;;13.00;67.22
10978;BME280;5542;48.272;10.794;2023-05-24T07:53:56;95930.16;;;13.10;66.83
10978;BME280;5542;48.272;10.794;2023-05-24T07:56:23;95931.19;;;12.92;67.49
10978;BME280;5542;48.272;10.794;2023-05-24T07:58:49;95936.97;;;13.06;66.60
10978;BME280;5542;48.272;10.794;2023-05-24T08:01:17;95929.59;;;13.08;67.18
10978;BME280;5542;48.272;10.794;2023-05-24T08:03:44;95936.22;;;13.22;67.86
10978;BME280;5542;48.272;10.794;2023-05-24T08:06:11;95935.81;;;13.47;66.52
10978;BME280;5542;48.272;10.794;2023-05-24T08:08:38;95939.38;;;13.75;65.10
10978;BME280;5542;48.272;10.794;2023-05-24T08:11:05;95939.50;;;13.46;66.03
10978;BME280;5542;48.272;10.794;2023-05-24T08:13:32;95924.50;;;13.52;65.15
10978;BME280;5542;48.272;10.794;2023-05-24T08:15:58;95921.38;;;13.38;65.98
10978;BME280;5542;48.272;10.794;2023-05-24T08:18:26;95926.28;;;13.46;65.89
10978;BME280;5542;48.272;10.794;2023-05-24T08:20:53;95927.38;;;13.67;66.91
10978;BME280;5542;48.272;10.794;2023-05-24T08:23:19;95925.03;;;13.88;64.04
10978;BME280;5542;48.272;10.794;2023-05-24T08:25:46;95932.56;;;13.96;65.65
10978;BME280;5542;48.272;10.794;2023-05-24T08:28:13;95942.59;;;14.16;64.07
10978;BME280;5542;48.272;10.794;2023-05-24T08:30:41;95945.84;;;14.23;63.24
10978;BME280;5542;48.272;10.794;2023-05-24T08:33:08;95945.38;;;14.26;61.84
10978;BME280;5542;48.272;10.794;2023-05-24T08:35:36;95940.84;;;14.04;62.50
10978;BME280;5542;48.272;10.794;2023-05-24T08:38:02;95955.50;;;14.12;62.56
10978;BME280;5542;48.272;10.794;2023-05-24T08:40:29;95954.03;;;14.21;62.73
10978;BME280;5542;48.272;10.794;2023-05-24T08:42:58;95942.16;;;14.24;62.20
10978;BME280;5542;48.272;10.794;2023-05-24T08:45:28;95944.28;;;14.05;59.95
10978;BME280;5542;48.272;10.794;2023-05-24T08:47:56;95954.28;;;14.20;62.00
10978;BME280;5542;48.272;10.794;2023-05-24T08:50:24;95940.31;;;14.24;60.74
10978;BME280;5542;48.272;10.794;2023-05-24T08:52:53;95951.19;;;14.28;59.35
10978;BME280;5542;48.272;10.794;2023-05-24T08:55:20;95945.91;;;14.06;58.78
10978;BME280;5542;48.272;10.794;2023-05-24T08:57:47;95949.47;;;13.78;60.99
10978;BME280;5542;48.272;10.794;2023-05-24T09:00:15;95940.25;;;13.97;61.68
10978;BME280;5542;48.272;10.794;2023-05-24T09:02:42;95946.75;;;14.33;63.17
10978;BME280;5542;48.272;10.794;2023-05-24T09:05:11;95939.84;;;14.49;58.37
10978;BME280;5542;48.272;10.794;2023-05-24T09:07:42;95949.91;;;14.30;58.25
10978;BME280;5542;48.272;10.794;2023-05-24T09:10:11;95944.13;;;14.12;59.78
10978;BME280;5542;48.272;10.794;2023-05-24T09:12:39;95951.00;;;14.13;58.55
10978;BME280;5542;48.272;10.794;2023-05-24T09:15:06;95949.72;;;14.15;60.34
10978;BME280;5542;48.272;10.794;2023-05-24T09:17:34;95955.06;;;14.42;56.22
10978;BME280;5542;48.272;10.794;2023-05-24T09:20:00;95957.72;;;14.20;58.07
10978;BME280;5542;48.272;10.794;2023-05-24T09:22:31;95964.06;;;14.41;59.67
10978;BME280;5542;48.272;10.794;2023-05-24T09:24:59;95960.25;;;14.76;58.95
10978;BME280;5542;48.272;10.794;2023-05-24T09:27:30;95960.47;;;14.96;57.51
10978;BME280;5542;48.272;10.794;2023-05-24T09:29:58;95970.41;;;14.84;56.64
10978;BME280;5542;48.272;10.794;2023-05-24T09:32:26;95966.38;;;15.03;56.24
10978;BME280;5542;48.272;10.794;2023-05-24T09:34:56;95972.66;;;14.97;58.26
10978;BME280;5542;48.272;10.794;2023-05-24T09:37:24;95966.09;;;15.32;54.30
10978;BME280;5542;48.272;10.794;2023-05-24T09:39:52;95967.88;;;15.21;53.91
10978;BME280;5542;48.272;10.794;2023-05-24T09:42:21;95966.69;;;15.39;52.33
10978;BME280;5542;48.272;10.794;2023-05-24T09:44:57;95964.81;;;14.80;55.29
10978;BME280;5542;48.272;10.794;2023-05-24T09:47:27;95973.06;;;14.62;55.82
10978;BME280;5542;48.272;10.794;2023-05-24T09:49:54;95972.84;;;14.91;57.07
10978;BME280;5542;48.272;10.794;2023-05-24T09:52:21;95970.34;;;15.33;54.95
10978;BME280;5542;48.272;10.794;2023-05-24T09:54:47;95959.78;;;15.38;51.79
10978;BME280;5542;48.272;10.794;2023-05-24T09:57:14;95965.81;;;15.01;52.90
10978;BME280;5542;48.272;10.794;2023-05-24T09:59:41;95967.22;;;15.09;54.35
10978;BME280;5542;48.272;10.794;2023-05-24T10:02:10;95967.25;;;15.14;56.25
10978;BME280;5542;48.272;10.794;2023-05-24T10:04:37;95964.16;;;14.95;54.71
10978;BME280;5542;48.272;10.794;2023-05-24T10:07:05;95972.47;;;15.04;56.73
10978;BME280;5542;48.272;10.794;2023-05-24T10:09:32;95974.38;;;14.81;55.97
10978;BME280;5542;48.272;10.794;2023-05-24T10:12:01;95971.19;;;14.84;55.95
10978;BME280;5542;48.272;10.794;2023-05-24T10:14:31;95977.00;;;15.08;56.04
10978;BME280;5542;48.272;10.794;2023-05-24T10:16:58;95970.28;;;14.96;53.30
10978;BME280;5542;48.272;10.794;2023-05-24T10:19:26;95969.44;;;14.95;53.43
10978;BME280;5542;48.272;10.794;2023-05-24T10:21:55;95972.47;;;14.55;53.53
10978;BME280;5542;48.272;10.794;2023-05-24T10:24:25;95972.94;;;14.30;54.58
10978;BME280;5542;48.272;10.794;2023-05-24T10:26:53;95978.59;;;14.00;55.72
10978;BME280;5542;48.272;10.794;2023-05-24T10:29:28;95983.94;;;13.83;57.37
10978;BME280;5542;48.272;10.794;2023-05-24T10:31:59;95976.00;;;13.83;56.40
10978;BME280;5542;48.272;10.794;2023-05-24T10:34:28;95973.34;;;13.66;56.57
10978;BME280;5542;48.272;10.794;2023-05-24T10:36:57;95979.44;;;13.67;56.68
10978;BME280;5542;48.272;10.794;2023-05-24T10:39:24;95980.72;;;13.47;56.85
10978;BME280;5542;48.272;10.794;2023-05-24T10:41:51;95979.53;;;13.55;57.85
10978;BME280;5542;48.272;10.794;2023-05-24T10:44:20;95976.31;;;13.70;57.01
10978;BME280;5542;48.272;10.794;2023-05-24T10:47:08;95974.31;;;13.60;55.82
10978;BME280;5542;48.272;10.794;2023-05-24T10:49:37;95976.31;;;13.70;56.91
10978;BME280;5542;48.272;10.794;2023-05-24T10:52:07;95981.44;;;13.76;55.30
10978;BME280;5542;48.272;10.794;2023-05-24T10:54:34;95977.84;;;13.66;54.57
10978;BME280;5542;48.272;10.794;2023-05-24T10:57:02;95971.19;;;13.80;53.33
10978;BME280;5542;48.272;10.794;2023-05-24T10:59:32;95975.00;;;13.89;55.81
10978;BME280;5542;48.272;10.794;2023-05-24T11:02:02;95977.06;;;14.04;53.69
10978;BME280;5542;48.272;10.794;2023-05-24T11:04:31;95977.47;;;14.13;54.67
10978;BME280;5542;48.272;10.794;2023-05-24T11:07:02;95964.50;;;14.11;54.03
10978;BME280;5542;48.272;10.794;2023-05-24T11:09:29;95964.88;;;14.42;53.79
10978;BME280;5542;48.272;10.794;2023-05-24T11:12:00;95961.34;;;14.36;53.11
10978;BME280;5542;48.272;10.794;2023-05-24T11:14:29;95966.81;;;14.07;54.34
10978;BME280;5542;48.272;10.794;2023-05-24T11:16:57;95961.28;;;14.09;53.63
10978;BME280;5542;48.272;10.794;2023-05-24T11:19:30;95958.09;;;13.90;53.38
10978;BME280;5542;48.272;10.794;2023-05-24T11:21:58;95971.38;;;13.95;52.75
10978;BME280;5542;48.272;10.794;2023-05-24T11:24:27;95960.81;;;13.95;53.98
10978;BME280;5542;48.272;10.794;2023-05-24T11:26:54;95957.94;;;13.97;56.07
10978;BME280;5542;48.272;10.794;2023-05-24T11:29:21;95955.94;;;14.26;55.86
10978;BME280;5542;48.272;10.794;2023-05-24T11:31:48;95957.06;;;14.30;54.08
10978;BME280;5542;48.272;10.794;2023-05-24T11:34:15;95951.19;;;14.28;52.95
10978;BME280;5542;48.272;10.794;2023-05-24T11:36:43;95957.13;;;14.35;54.86
10978;BME280;5542;48.272;10.794;2023-05-24T11:39:11;95950.16;;;14.29;52.83
10978;BME280;5542;48.272;10.794;2023-05-24T11:41:39;95953.03;;;14.27;53.52
10978;BME280;5542;48.272;10.794;2023-05-24T11:44:08;95949.50;;;14.39;52.61
10978;BME280;5542;48.272;10.794;2023-05-24T11:46:35;95954.06;;;14.43;52.67
10978;BME280;5542;48.272;10.794;2023-05-24T11:49:03;95946.91;;;14.66;50.96
10978;BME280;5542;48.272;10.794;2023-05-24T11:51:32;95950.91;;;14.46;51.22
10978;BME280;5542;48.272;10.794;2023-05-24T11:53:59;95948.59;;;14.50;50.24
10978;BME280;5542;48.272;10.794;2023-05-24T11:56:28;95933.31;;;14.57;50.23
10978;BME280;5542;48.272;10.794;2023-05-24T11:59:02;95938.78;;;14.72;50.29
10978;BME280;5542;48.272;10.794;2023-05-24T12:01:31;95934.34;;;14.78;48.49
10978;BME280;5542;48.272;10.794;2023-05-24T12:03:57;95929.38;;;14.59;47.96
10978;BME280;5542;48.272;10.794;2023-05-24T12:06:33;95936.31;;;14.66;50.14
10978;BME280;5542;48.272;10.794;2023-05-24T12:09:00;95936.16;;;15.04;47.66
10978;BME280;5542;48.272;10.794;2023-05-24T12:11:29;95930.59;;;15.01;48.13
10978;BME280;5542;48.272;10.794;2023-05-24T12:13:58;95940.97;;;15.07;50.60
10978;BME280;5542;48.272;10.794;2023-05-24T12:16:26;95929.91;;;15.10;50.02
10978;BME280;5542;48.272;10.794;2023-05-24T12:18:56;95927.94;;;15.01;47.80
10978;BME280;5542;48.272;10.794;2023-05-24T12:21:23;95943.91;;;14.57;49.42
10978;BME280;5542;48.272;10.794;2023-05-24T12:23:49;95930.84;;;14.72;49.24
10978;BME280;5542;48.272;10.794;2023-05-24T12:26:17;95930.78;;;14.94;49.38
10978;BME280;5542;48.272;10.794;2023-05-24T12:28:44;95920.00;;;15.01;49.09
10978;BME280;5542;48.272;10.794;2023-05-24T12:31:12;95924.56;;;15.43;49.43
10978;BME280;5542;48.272;10.794;2023-05-24T12:33:39;95920.97;;;15.54;46.52
10978;BME280;5542;48.272;10.794;2023-05-24T12:36:07;95931.41;;;15.66;48.61
10978;BME280;5542;48.272;10.794;2023-05-24T12:38:35;95928.16;;;15.58;47.24
10978;BME280;5542;48.272;10.794;2023-05-24T12:41:02;95939.34;;;15.66;48.80
10978;BME280;5542;48.272;10.794;2023-05-24T12:43:30;95920.72;;;15.98;44.55
10978;BME280;5542;48.272;10.794;2023-05-24T12:45:57;95924.06;;;15.78;44.97
10978;BME280;5542;48.272;10.794;2023-05-24T12:48:25;95922.69;;;15.70;43.74
10978;BME280;5542;48.272;10.794;2023-05-24T12:50:52;95930.22;;;15.51;43.30
10978;BME280;5542;48.272;10.794;2023-05-24T12:53:18;95924.63;;;15.48;43.99
10978;BME280;5542;48.272;10.794;2023-05-24T12:55:48;95931.59;;;15.27;45.77
10978;BME280;5542;48.272;10.794;2023-05-24T12:58:15;95928.97;;;15.27;46.32
10978;BME280;5542;48.272;10.794;2023-05-24T13:00:44;95929.47;;;15.61;46.33
10978;BME280;5542;48.272;10.794;2023-05-24T13:03:14;95921.19;;;15.52;44.37